Terminal Aerodrome Forecast
Issued by NWS

Home | Current Version | Previous Version | Text Only | Print | Product List | Glossary On
Versions: 1 2 3 4 5 6 7 8 9 10 11 12 13 14 15 16 17 18 19 20
000
FTUS44 KBMX 231000 AAA
TAFMGM
TAF AMD
KMGM 231012Z 2310/2406 00000KT 6SM BR SCT007 SCT150
      TEMPO 2311/2313 2SM BR BKN007
     FM231400 22004KT P6SM BKN015
     FM231600 22004KT P6SM SCT020 SCT035
     FM231800 24005KT P6SM VCTS BKN040CB=

USA.gov is the U.S. government's official web portal to all federal, state and local government web resources and services.